Terminal Aerodrome Forecast
Issued by NWS

Home | Current Version | Previous Version | Text Only | Print | Product List | Glossary On
Versions: 1 2 3 4 5 6 7 8 9 10 11 12 13 14 15
000
FTUS43 KDMX 280954 AAA
TAFFOD
TAF AMD
KFOD 280954Z 2810/2906 34006KT P6SM BKN030
     FM281300 35011KT P6SM BKN016 BKN030
     FM281700 36008KT P6SM BKN024
     FM282100 01007KT P6SM SCT024 BKN035=

USA.gov is the U.S. government's official web portal to all federal, state and local government web resources and services.